Time;durP1;ratioP1;P1;durP2;ratioP2;P2;SDS_P1;SDS_P2;PMS_P1;PMS_P2;Temp;Humidity;BMP_temperature;BMP_pressure;BME280_temperature;BME280_humidity;BME280_pressure;Samples;Min_cycle;Max_cycle;Signal;HPM_P1;HPM_P2
2023/02/15 00:01:45;;;;;;;;;;;-0.30;99.90;;;;;;5040854;28;19917;-76
2023/02/15 00:04:14;;;;;;;;;;;-0.30;99.90;;;;;;5047930;28;20394;-75
2023/02/15 00:06:40;;;;;;;;;;;-0.40;99.90;;;;;;5052090;28;20291;-76
2023/02/15 00:09:05;;;;;;;;;;;-0.30;99.90;;;;;;5053175;28;19919;-77
2023/02/15 00:11:40;;;;;;;;;;;-0.40;99.90;;;;;;5052840;28;19963;-76
2023/02/15 00:14:09;;;;;;;;;;;-0.40;99.90;;;;;;5053559;28;20370;-76
2023/02/15 00:16:35;;;;;;;;;;;-0.30;99.90;;;;;;5052687;28;20386;-77
2023/02/15 00:19:03;;;;;;;;;;;-0.30;99.90;;;;;;5042143;28;19916;-76
2023/02/15 00:21:30;;;;;;;;;;;-0.40;99.90;;;;;;5046434;28;20391;-76
2023/02/15 00:23:56;;;;;;;;;;;-0.40;99.90;;;;;;5071547;28;19924;-77
2023/02/15 00:26:21;;;;;;;;;;;-0.40;99.90;;;;;;5059786;28;19916;-77
2023/02/15 00:28:47;;;;;;;;;;;-0.40;99.90;;;;;;5053126;28;19971;-76
2023/02/15 00:31:12;;;;;;;;;;;-0.40;99.90;;;;;;5053681;28;19923;-77
2023/02/15 00:33:38;;;;;;;;;;;-0.40;99.90;;;;;;5052389;28;19922;-76
2023/02/15 00:36:05;;;;;;;;;;;-0.50;99.90;;;;;;5050165;28;19917;-76
2023/02/15 00:38:31;;;;;;;;;;;-0.50;99.90;;;;;;5052276;28;20003;-76
2023/02/15 00:40:58;;;;;;;;;;;-0.50;99.90;;;;;;5052071;28;20001;-76
2023/02/15 00:43:24;;;;;;;;;;;-0.50;99.90;;;;;;5050694;28;20082;-76
2023/02/15 00:45:49;;;;;;;;;;;-0.60;99.90;;;;;;5051233;28;20055;-76
2023/02/15 00:48:15;;;;;;;;;;;-0.60;99.90;;;;;;5052156;28;19913;-76
2023/02/15 00:50:40;;;;;;;;;;;-0.60;99.90;;;;;;5052534;28;19916;-76
2023/02/15 00:53:07;;;;;;;;;;;-0.70;99.90;;;;;;5052139;28;19909;-75
2023/02/15 00:55:33;;;;;;;;;;;-0.70;99.90;;;;;;5052658;28;20007;-76
2023/02/15 00:58:01;;;;;;;;;;;-0.60;99.90;;;;;;5052781;28;19928;-75
2023/02/15 01:00:26;;;;;;;;;;;-0.60;99.90;;;;;;5052524;28;19931;-75
2023/02/15 01:02:52;;;;;;;;;;;-0.60;99.90;;;;;;5052975;28;19909;-76
2023/02/15 01:05:18;;;;;;;;;;;-0.60;99.90;;;;;;5034869;28;19932;-76
2023/02/15 01:07:43;;;;;;;;;;;-0.50;99.90;;;;;;5051913;28;19912;-75
2023/02/15 01:10:09;;;;;;;;;;;-0.50;99.90;;;;;;5052098;28;19923;-76
2023/02/15 01:12:34;;;;;;;;;;;-0.50;99.90;;;;;;5051843;28;19913;-75
2023/02/15 01:15:00;;;;;;;;;;;-0.60;99.90;;;;;;5051791;28;20291;-76
2023/02/15 01:17:25;;;;;;;;;;;-0.70;99.90;;;;;;5046161;28;19956;-76
2023/02/15 01:19:51;;;;;;;;;;;-0.70;99.90;;;;;;5031928;28;19959;-76
2023/02/15 01:22:17;;;;;;;;;;;-0.80;99.90;;;;;;5032175;28;19909;-76
2023/02/15 01:24:42;;;;;;;;;;;-0.90;99.90;;;;;;5031980;28;20348;-76
2023/02/15 01:27:08;;;;;;;;;;;-0.90;99.90;;;;;;5031965;28;20444;-76
2023/02/15 01:29:34;;;;;;;;;;;-0.90;99.90;;;;;;5051821;28;19909;-76
2023/02/15 01:31:59;;;;;;;;;;;-0.90;99.90;;;;;;5040656;28;19967;-75
2023/02/15 01:34:24;;;;;;;;;;;-0.90;99.90;;;;;;5031315;28;19983;-76
2023/02/15 01:36:50;;;;;;;;;;;-0.90;99.90;;;;;;5042430;28;19962;-76
2023/02/15 01:39:15;;;;;;;;;;;-1.00;99.90;;;;;;5043639;28;19963;-75
2023/02/15 01:41:41;;;;;;;;;;;-1.00;99.90;;;;;;5051471;28;20287;-76
2023/02/15 01:44:25;;;;;;;;;;;-1.00;99.90;;;;;;5049779;28;20106;-76
2023/02/15 01:46:52;;;;;;;;;;;-1.00;99.90;;;;;;5051613;28;19909;-75
2023/02/15 01:49:20;;;;;;;;;;;-0.90;99.90;;;;;;5039427;28;19913;-76
2023/02/15 01:51:48;;;;;;;;;;;-1.00;99.90;;;;;;5030567;28;19909;-75
2023/02/15 01:54:26;;;;;;;;;;;-1.00;99.90;;;;;;5035252;28;19922;-75
2023/02/15 01:56:52;;;;;;;;;;;-1.00;99.90;;;;;;5035003;28;19913;-75
2023/02/15 01:59:20;;;;;;;;;;;-0.90;99.90;;;;;;5035308;28;19913;-75
2023/02/15 02:01:46;;;;;;;;;;;-0.90;99.90;;;;;;5035193;28;20016;-77
2023/02/15 02:04:25;;;;;;;;;;;-0.90;99.90;;;;;;5033780;28;19964;-74
2023/02/15 02:06:51;;;;;;;;;;;-0.80;99.90;;;;;;5045965;28;19909;-76
2023/02/15 02:09:16;;;;;;;;;;;-0.80;99.90;;;;;;5054634;28;19912;-76
2023/02/15 02:11:44;;;;;;;;;;;-0.70;99.90;;;;;;5054719;28;19908;-76
2023/02/15 02:14:10;;;;;;;;;;;-0.70;99.90;;;;;;5055501;28;19909;-75
2023/02/15 02:16:35;;;;;;;;;;;-0.70;99.90;;;;;;5054437;28;19916;-76
2023/02/15 02:19:01;;;;;;;;;;;-0.70;99.90;;;;;;5049018;28;19963;-76
2023/02/15 02:21:45;;;;;;;;;;;-0.70;99.90;;;;;;5035014;28;19920;-76
2023/02/15 02:24:13;;;;;;;;;;;-0.80;99.90;;;;;;5034821;28;19913;-76
2023/02/15 02:26:42;;;;;;;;;;;-0.80;99.90;;;;;;5051239;28;19913;-76
2023/02/15 02:29:10;;;;;;;;;;;-0.80;99.90;;;;;;5070598;28;19934;-76
2023/02/15 02:31:41;;;;;;;;;;;-0.70;99.90;;;;;;5071982;28;19913;-76
2023/02/15 02:34:25;;;;;;;;;;;-0.70;99.90;;;;;;5042268;28;19920;-76
2023/02/15 02:36:56;;;;;;;;;;;-0.70;99.90;;;;;;5046751;28;20371;-76
2023/02/15 02:39:22;;;;;;;;;;;-0.80;99.90;;;;;;5065319;28;20235;-75
2023/02/15 02:42:10;;;;;;;;;;;-0.90;99.90;;;;;;5036871;28;20013;-77
2023/02/15 02:44:51;;;;;;;;;;;-0.80;99.90;;;;;;5017022;28;20111;-77
2023/02/15 02:47:23;;;;;;;;;;;-0.70;99.90;;;;;;5035227;28;19909;-77
2023/02/15 02:49:52;;;;;;;;;;;-0.70;99.90;;;;;;5037681;28;19913;-76
2023/02/15 02:52:36;;;;;;;;;;;-0.70;99.90;;;;;;5036406;28;19967;-76
2023/02/15 02:55:03;;;;;;;;;;;-0.70;99.90;;;;;;5049924;28;19913;-77
2023/02/15 02:57:30;;;;;;;;;;;-0.70;99.90;;;;;;5034975;28;19913;-77
2023/02/15 02:59:58;;;;;;;;;;;-0.80;99.90;;;;;;5037788;28;20315;-76
2023/02/15 03:02:26;;;;;;;;;;;-0.80;99.90;;;;;;5037973;28;20004;-76
2023/02/15 03:04:58;;;;;;;;;;;-0.80;99.90;;;;;;5035929;28;19910;-75
2023/02/15 03:07:25;;;;;;;;;;;-0.70;99.90;;;;;;5040084;28;19951;-76
2023/02/15 03:09:52;;;;;;;;;;;-0.80;99.90;;;;;;5039484;28;19913;-76
2023/02/15 03:12:24;;;;;;;;;;;-0.90;99.90;;;;;;5033655;28;19909;-76
2023/02/15 03:14:54;;;;;;;;;;;-0.90;99.90;;;;;;5033461;28;19909;-77
2023/02/15 03:17:22;;;;;;;;;;;-0.90;99.90;;;;;;5015954;28;19917;-75
2023/02/15 03:19:49;;;;;;;;;;;-0.90;99.90;;;;;;5051420;28;20407;-76
2023/02/15 03:22:19;;;;;;;;;;;-0.90;99.90;;;;;;5056029;28;19916;-75
2023/02/15 03:24:53;;;;;;;;;;;-1.00;99.90;;;;;;5053635;28;19991;-76
2023/02/15 03:27:22;;;;;;;;;;;-0.90;99.90;;;;;;5053407;28;20003;-76
2023/02/15 03:29:49;;;;;;;;;;;-1.00;99.90;;;;;;5043877;28;20008;-76
2023/02/15 03:32:15;;;;;;;;;;;-1.00;99.90;;;;;;5033867;28;19909;-76
2023/02/15 03:34:41;;;;;;;;;;;-1.00;99.90;;;;;;5033677;28;20000;-76
2023/02/15 03:37:11;;;;;;;;;;;-0.90;99.90;;;;;;5046262;28;19917;-76
2023/02/15 03:39:49;;;;;;;;;;;-0.90;99.90;;;;;;5052956;28;19912;-76
2023/02/15 03:42:22;;;;;;;;;;;-0.90;99.90;;;;;;5053229;28;20433;-75
2023/02/15 03:45:01;;;;;;;;;;;-0.80;99.90;;;;;;5053073;28;19963;-76
2023/02/15 03:47:29;;;;;;;;;;;-0.80;99.90;;;;;;5035289;28;19960;-75
2023/02/15 03:53:00;;;;;;;;;;;-0.80;99.90;;;;;;5033310;28;19995;-75
2023/02/15 03:55:25;;;;;;;;;;;-0.80;99.90;;;;;;5015120;28;20059;-76
2023/02/15 04:03:35;;;;;;;;;;;-0.90;99.90;;;;;;5052759;28;19962;-76
2023/02/15 04:06:01;;;;;;;;;;;-0.80;99.90;;;;;;5052900;28;19908;-75
2023/02/15 04:10:51;;;;;;;;;;;-0.80;99.90;;;;;;5052893;28;19908;-76
2023/02/15 04:11:12;;;;;;;;;;;-0.80;99.90;;;;;;5052315;28;19917;-76
2023/02/15 04:13:38;;;;;;;;;;;-0.80;99.90;;;;;;5053135;28;20007;-75
2023/02/15 04:16:04;;;;;;;;;;;-0.80;99.90;;;;;;5034558;28;20015;-75
2023/02/15 04:26:47;;;;;;;;;;;-0.80;99.90;;;;;;5039464;28;19919;-75
2023/02/15 04:29:14;;;;;;;;;;;-0.80;99.90;;;;;;5057003;28;19996;-77
2023/02/15 04:31:40;;;;;;;;;;;-0.80;99.90;;;;;;5036553;28;19966;-78
2023/02/15 04:34:05;;;;;;;;;;;-0.70;99.90;;;;;;5053237;28;19913;-76
2023/02/15 04:36:31;;;;;;;;;;;-0.60;99.90;;;;;;5052529;28;19979;-77
2023/02/15 04:38:56;;;;;;;;;;;-0.60;99.90;;;;;;5053297;28;19999;-77
2023/02/15 04:41:22;;;;;;;;;;;-0.50;99.90;;;;;;5050767;28;19921;-76
2023/02/15 04:43:47;;;;;;;;;;;-0.40;99.90;;;;;;5034145;28;20322;-76
2023/02/15 04:46:13;;;;;;;;;;;-0.40;99.90;;;;;;5034173;28;19934;-77
2023/02/15 04:48:38;;;;;;;;;;;-0.30;99.90;;;;;;5033747;28;19936;-76
2023/02/15 04:51:07;;;;;;;;;;;-0.30;99.90;;;;;;5034370;28;19917;-77
2023/02/15 04:53:33;;;;;;;;;;;-0.20;99.90;;;;;;5050760;28;20007;-76
2023/02/15 04:55:58;;;;;;;;;;;-0.10;99.90;;;;;;5050905;28;20020;-75
2023/02/15 04:58:24;;;;;;;;;;;-0.10;99.90;;;;;;5051985;28;19912;-76
2023/02/15 05:00:49;;;;;;;;;;;-0.10;99.90;;;;;;5053091;28;19917;-75
2023/02/15 05:03:15;;;;;;;;;;;0.00;99.90;;;;;;5048991;28;19956;-75
2023/02/15 05:05:40;;;;;;;;;;;0.00;99.90;;;;;;5044438;28;19945;-76
2023/02/15 05:08:06;;;;;;;;;;;0.10;99.90;;;;;;5054523;28;19913;-75
2023/02/15 05:10:31;;;;;;;;;;;0.10;99.90;;;;;;5053486;28;19908;-75
2023/02/15 05:12:57;;;;;;;;;;;0.10;99.90;;;;;;5054293;28;19997;-77
2023/02/15 05:15:23;;;;;;;;;;;0.10;99.90;;;;;;5066300;28;19919;-77
2023/02/15 05:17:49;;;;;;;;;;;0.00;99.90;;;;;;5069258;28;19912;-79
2023/02/15 05:20:15;;;;;;;;;;;0.10;99.90;;;;;;5076370;28;19905;-79
2023/02/15 05:22:40;;;;;;;;;;;0.10;99.90;;;;;;5075837;28;19927;-78
2023/02/15 05:30:36;;;;;;;;;;;0.10;99.90;;;;;;5072050;28;20045;-78
2023/02/15 05:33:02;;;;;;;;;;;0.10;99.90;;;;;;5054272;28;20004;-79
2023/02/15 05:35:27;;;;;;;;;;;0.10;99.90;;;;;;5068019;28;19913;-79
2023/02/15 05:37:53;;;;;;;;;;;0.20;99.90;;;;;;5074375;28;19971;-78
2023/02/15 05:40:19;;;;;;;;;;;0.10;99.90;;;;;;5051640;28;19931;-78
2023/02/15 05:42:44;;;;;;;;;;;0.00;99.90;;;;;;5051657;28;20386;-79
2023/02/15 05:45:10;;;;;;;;;;;0.00;99.90;;;;;;5067837;28;19940;-79
2023/02/15 05:47:36;;;;;;;;;;;0.00;99.90;;;;;;5067485;28;19924;-79
2023/02/15 05:50:01;;;;;;;;;;;0.00;99.90;;;;;;5067749;28;19919;-80
2023/02/15 05:52:27;;;;;;;;;;;0.00;99.90;;;;;;5067296;28;19916;-80
2023/02/15 05:54:53;;;;;;;;;;;0.00;99.90;;;;;;5062763;28;19913;-78
2023/02/15 05:57:19;;;;;;;;;;;0.10;99.90;;;;;;5054716;28;19980;-80
2023/02/15 05:59:45;;;;;;;;;;;0.00;99.90;;;;;;5033172;28;19977;-77
2023/02/15 06:02:11;;;;;;;;;;;0.10;99.90;;;;;;5047270;28;19909;-78
2023/02/15 06:04:36;;;;;;;;;;;0.10;99.90;;;;;;5045294;28;19914;-78
2023/02/15 06:07:02;;;;;;;;;;;0.10;99.90;;;;;;5065978;28;19919;-79
2023/02/15 06:09:27;;;;;;;;;;;0.10;99.90;;;;;;5067586;28;20355;-79
2023/02/15 06:11:53;;;;;;;;;;;0.10;99.90;;;;;;5068654;28;19916;-79
2023/02/15 06:14:18;;;;;;;;;;;0.10;99.90;;;;;;5062551;28;19909;-78
2023/02/15 06:16:44;;;;;;;;;;;0.10;99.90;;;;;;5045022;28;19917;-80
2023/02/15 06:19:11;;;;;;;;;;;0.10;99.90;;;;;;5072357;28;19961;-77
2023/02/15 06:21:36;;;;;;;;;;;0.00;99.90;;;;;;5086994;28;19918;-79
2023/02/15 06:24:02;;;;;;;;;;;0.00;99.90;;;;;;5071015;28;19909;-78
2023/02/15 06:26:28;;;;;;;;;;;0.00;99.90;;;;;;5045983;28;19913;-78
2023/02/15 06:28:53;;;;;;;;;;;-0.10;99.90;;;;;;5050190;28;19960;-78
2023/02/15 06:31:19;;;;;;;;;;;-0.20;99.90;;;;;;5071490;28;20363;-78
2023/02/15 06:33:44;;;;;;;;;;;-0.20;99.90;;;;;;5060209;28;19912;-79
2023/02/15 06:36:10;;;;;;;;;;;-0.20;99.90;;;;;;5060202;28;19968;-78
2023/02/15 06:38:35;;;;;;;;;;;-0.30;99.90;;;;;;5060674;28;20320;-79
2023/02/15 06:41:01;;;;;;;;;;;-0.20;99.90;;;;;;5063741;28;19916;-79
2023/02/15 06:43:27;;;;;;;;;;;-0.10;99.90;;;;;;5052981;28;19908;-79
2023/02/15 06:45:52;;;;;;;;;;;0.00;99.90;;;;;;5063839;28;19980;-78
2023/02/15 06:48:18;;;;;;;;;;;0.00;99.90;;;;;;5044646;28;19908;-79
2023/02/15 06:50:43;;;;;;;;;;;0.10;99.90;;;;;;5062371;28;19908;-80
2023/02/15 06:53:09;;;;;;;;;;;0.10;99.90;;;;;;5046473;28;20403;-79
2023/02/15 06:55:34;;;;;;;;;;;0.20;99.90;;;;;;5065656;28;20070;-79
2023/02/15 06:58:00;;;;;;;;;;;0.20;99.90;;;;;;5085835;28;20309;-79
2023/02/15 07:00:25;;;;;;;;;;;0.20;99.90;;;;;;5088862;28;19928;-78
2023/02/15 07:02:58;;;;;;;;;;;0.20;99.90;;;;;;5070074;28;19956;-78
2023/02/15 07:05:24;;;;;;;;;;;0.20;99.90;;;;;;5050478;28;19909;-78
2023/02/15 07:07:50;;;;;;;;;;;0.20;99.90;;;;;;5066319;28;19956;-79
2023/02/15 07:10:16;;;;;;;;;;;0.20;99.90;;;;;;5068280;28;19921;-79
2023/02/15 07:12:42;;;;;;;;;;;0.30;99.90;;;;;;5068971;28;19996;-79
2023/02/15 07:15:15;;;;;;;;;;;0.40;99.90;;;;;;5065803;28;19920;-79
2023/02/15 07:17:41;;;;;;;;;;;0.40;99.90;;;;;;5063561;28;20066;-78
2023/02/15 07:20:08;;;;;;;;;;;0.40;99.90;;;;;;5061681;28;19943;-78
2023/02/15 07:22:36;;;;;;;;;;;0.40;99.90;;;;;;5062218;28;19913;-78
2023/02/15 07:25:02;;;;;;;;;;;0.50;99.90;;;;;;5072203;28;19935;-79
2023/02/15 07:27:28;;;;;;;;;;;0.50;99.90;;;;;;5073062;28;19928;-79
2023/02/15 07:29:53;;;;;;;;;;;0.60;99.90;;;;;;5084868;28;20386;-80
2023/02/15 07:32:19;;;;;;;;;;;0.70;99.90;;;;;;5088000;28;19908;-79
2023/02/15 07:34:44;;;;;;;;;;;0.80;99.90;;;;;;5095000;28;19897;-79
2023/02/15 07:37:10;;;;;;;;;;;0.90;99.90;;;;;;5067085;28;19923;-78
2023/02/15 07:39:35;;;;;;;;;;;1.00;99.90;;;;;;5071835;28;19936;-78
2023/02/15 07:42:01;;;;;;;;;;;1.00;99.90;;;;;;5074119;28;19901;-79
2023/02/15 07:44:27;;;;;;;;;;;1.00;99.90;;;;;;5074227;28;19908;-78
2023/02/15 07:46:52;;;;;;;;;;;1.10;99.90;;;;;;5071622;28;19897;-80
2023/02/15 07:49:18;;;;;;;;;;;1.00;99.90;;;;;;5068766;28;20022;-79
2023/02/15 07:51:43;;;;;;;;;;;1.00;99.90;;;;;;5058488;28;19909;-78
2023/02/15 07:54:09;;;;;;;;;;;1.00;99.90;;;;;;5040880;28;19913;-77
2023/02/15 07:56:34;;;;;;;;;;;1.00;99.90;;;;;;5038721;28;19917;-79
2023/02/15 07:59:02;;;;;;;;;;;1.10;99.90;;;;;;5061322;28;19920;-79
2023/02/15 08:01:32;;;;;;;;;;;1.10;99.90;;;;;;5072915;28;19940;-79
2023/02/15 08:03:58;;;;;;;;;;;1.10;99.90;;;;;;5075211;28;19964;-79
2023/02/15 08:06:25;;;;;;;;;;;1.10;99.90;;;;;;5049712;28;19939;-78
2023/02/15 08:08:51;;;;;;;;;;;1.10;99.90;;;;;;5057753;28;19913;-78
2023/02/15 08:11:37;;;;;;;;;;;1.20;99.90;;;;;;5049591;28;19913;-78
2023/02/15 08:14:04;;;;;;;;;;;1.30;99.90;;;;;;5038075;28;20327;-78
2023/02/15 08:16:33;;;;;;;;;;;1.20;99.90;;;;;;5043056;28;20000;-79
2023/02/15 08:18:59;;;;;;;;;;;1.20;99.90;;;;;;5037982;28;19946;-78
2023/02/15 08:21:26;;;;;;;;;;;1.10;99.90;;;;;;5049107;28;19916;-79
2023/02/15 08:23:52;;;;;;;;;;;1.00;99.90;;;;;;5050306;28;20264;-79
2023/02/15 08:26:17;;;;;;;;;;;1.10;99.90;;;;;;5056967;28;19909;-78
2023/02/15 08:28:44;;;;;;;;;;;1.30;99.90;;;;;;5039604;28;19959;-78
2023/02/15 08:31:13;;;;;;;;;;;1.50;99.90;;;;;;5056371;28;20437;-77
2023/02/15 08:33:39;;;;;;;;;;;1.70;99.90;;;;;;5055366;28;19920;-77
2023/02/15 08:36:08;;;;;;;;;;;1.80;99.90;;;;;;5053444;28;19982;-77
2023/02/15 08:38:33;;;;;;;;;;;1.90;99.90;;;;;;5056215;28;19916;-78
2023/02/15 08:41:17;;;;;;;;;;;2.00;99.90;;;;;;5051618;28;19932;-78
2023/02/15 08:43:43;;;;;;;;;;;2.10;99.90;;;;;;5049761;28;19912;-78
2023/02/15 08:46:09;;;;;;;;;;;2.10;99.90;;;;;;5046834;28;19916;-77
2023/02/15 08:48:35;;;;;;;;;;;2.00;99.90;;;;;;5064297;28;19974;-78
2023/02/15 08:51:07;;;;;;;;;;;2.00;99.90;;;;;;5052717;28;20439;-78
2023/02/15 08:53:32;;;;;;;;;;;2.00;99.90;;;;;;5064822;28;19920;-79
2023/02/15 08:55:58;;;;;;;;;;;2.00;99.90;;;;;;5063432;28;19913;-79
2023/02/15 08:58:24;;;;;;;;;;;2.00;99.90;;;;;;5063471;28;19916;-79
2023/02/15 09:00:50;;;;;;;;;;;2.00;99.90;;;;;;5067510;28;19924;-80
2023/02/15 09:03:15;;;;;;;;;;;2.00;99.90;;;;;;5070978;28;19927;-81
2023/02/15 09:05:41;;;;;;;;;;;2.10;99.90;;;;;;5053131;28;19913;-80
2023/02/15 09:08:06;;;;;;;;;;;2.50;99.90;;;;;;5052116;28;19916;-80
2023/02/15 09:10:32;;;;;;;;;;;2.60;99.70;;;;;;5057008;28;19909;-80
2023/02/15 09:12:57;;;;;;;;;;;2.80;99.40;;;;;;5051196;28;20524;-81
2023/02/15 09:15:23;;;;;;;;;;;3.10;98.60;;;;;;5036826;28;19920;-81
2023/02/15 09:17:48;;;;;;;;;;;3.30;98.10;;;;;;5037696;28;19920;-80
2023/02/15 09:20:14;;;;;;;;;;;3.50;97.70;;;;;;5037163;28;19968;-81
2023/02/15 09:22:39;;;;;;;;;;;3.70;97.20;;;;;;5038868;28;20303;-80
2023/02/15 09:25:05;;;;;;;;;;;3.80;96.70;;;;;;5042331;28;19927;-81
2023/02/15 09:27:31;;;;;;;;;;;3.90;96.20;;;;;;5057407;28;19909;-80
2023/02/15 09:29:56;;;;;;;;;;;4.00;96.00;;;;;;5069989;28;19921;-81
2023/02/15 09:32:31;;;;;;;;;;;4.20;95.20;;;;;;5068443;28;19909;-80
2023/02/15 09:34:56;;;;;;;;;;;4.20;94.80;;;;;;5069211;28;19913;-82
2023/02/15 09:37:22;;;;;;;;;;;4.30;94.90;;;;;;5061685;28;20074;-81
2023/02/15 09:39:47;;;;;;;;;;;4.50;94.80;;;;;;5061165;28;20086;-81
2023/02/15 09:42:27;;;;;;;;;;;4.80;94.30;;;;;;5059954;28;19916;-80
2023/02/15 09:45:11;;;;;;;;;;;4.90;93.70;;;;;;5061189;28;19913;-80
2023/02/15 09:47:42;;;;;;;;;;;5.00;93.50;;;;;;5060797;28;19909;-80
2023/02/15 09:50:27;;;;;;;;;;;5.10;93.20;;;;;;5058147;28;19909;-81
2023/02/15 09:52:55;;;;;;;;;;;5.40;92.90;;;;;;5058221;28;19908;-79
2023/02/15 09:55:24;;;;;;;;;;;6.00;93.00;;;;;;5043059;28;19941;-80
2023/02/15 09:57:56;;;;;;;;;;;6.60;91.90;;;;;;5057330;28;20348;-80
2023/02/15 10:00:25;;;;;;;;;;;6.80;90.80;;;;;;5066962;28;20282;-81
2023/02/15 10:03:03;;;;;;;;;;;6.80;89.90;;;;;;5067427;28;19962;-80
2023/02/15 10:05:28;;;;;;;;;;;6.90;90.00;;;;;;5057308;28;19918;-80
2023/02/15 10:07:55;;;;;;;;;;;6.70;89.10;;;;;;5048102;28;19935;-81
2023/02/15 10:10:44;;;;;;;;;;;6.30;89.50;;;;;;5053302;28;19913;-81
2023/02/15 10:13:13;;;;;;;;;;;6.00;89.80;;;;;;5051913;28;19972;-80
2023/02/15 10:15:50;;;;;;;;;;;5.60;90.90;;;;;;5058105;28;19940;-81
2023/02/15 10:18:16;;;;;;;;;;;5.50;91.10;;;;;;5064311;28;19923;-79
2023/02/15 10:20:42;;;;;;;;;;;5.40;91.70;;;;;;5071732;28;19936;-79
2023/02/15 10:23:34;;;;;;;;;;;5.40;91.90;;;;;;5074926;28;19968;-80
2023/02/15 10:26:17;;;;;;;;;;;5.60;92.00;;;;;;5055358;28;19901;-79
2023/02/15 10:28:52;;;;;;;;;;;5.60;91.60;;;;;;5062434;28;20022;-79
2023/02/15 10:31:17;;;;;;;;;;;5.60;91.30;;;;;;5062291;28;19908;-80
2023/02/15 10:33:43;;;;;;;;;;;5.50;91.70;;;;;;5059994;28;19957;-80
2023/02/15 10:36:27;;;;;;;;;;;5.50;92.00;;;;;;5042121;28;19928;-80
2023/02/15 10:39:01;;;;;;;;;;;5.60;92.20;;;;;;5070680;28;19966;-80
2023/02/15 10:41:39;;;;;;;;;;;5.60;92.30;;;;;;5063294;28;19909;-80
2023/02/15 10:44:23;;;;;;;;;;;5.70;92.30;;;;;;5078353;28;19962;-80
2023/02/15 10:47:07;;;;;;;;;;;5.80;92.30;;;;;;5052018;28;19931;-81
2023/02/15 10:49:53;;;;;;;;;;;6.00;91.80;;;;;;5042167;28;19920;-81
2023/02/15 10:52:18;;;;;;;;;;;6.00;91.20;;;;;;5023464;28;20344;-80
2023/02/15 10:55:04;;;;;;;;;;;6.00;91.30;;;;;;5043135;28;19985;-81
2023/02/15 10:57:30;;;;;;;;;;;5.90;91.30;;;;;;5048799;28;19945;-81
2023/02/15 11:00:04;;;;;;;;;;;6.00;91.70;;;;;;5073363;28;19913;-81
2023/02/15 11:02:42;;;;;;;;;;;5.90;91.70;;;;;;5050053;28;19916;-82
2023/02/15 11:05:27;;;;;;;;;;;6.00;91.60;;;;;;5071042;28;19918;-81
2023/02/15 11:07:54;;;;;;;;;;;6.20;92.00;;;;;;5070585;28;20025;-81
2023/02/15 11:10:50;;;;;;;;;;;6.30;91.60;;;;;;5070814;28;19925;-81
2023/02/15 11:13:17;;;;;;;;;;;6.40;91.10;;;;;;5050326;28;19935;-80
2023/02/15 11:15:46;;;;;;;;;;;6.50;91.10;;;;;;5063953;28;19940;-80
2023/02/15 11:18:15;;;;;;;;;;;6.50;91.00;;;;;;5047902;28;20383;-80
2023/02/15 11:20:50;;;;;;;;;;;6.50;91.50;;;;;;5024218;28;19913;-80
2023/02/15 11:23:16;;;;;;;;;;;6.50;91.40;;;;;;5040779;28;20364;-80
2023/02/15 11:25:43;;;;;;;;;;;6.60;91.10;;;;;;5040386;28;19917;-80
2023/02/15 11:28:16;;;;;;;;;;;6.50;90.90;;;;;;5052367;28;19936;-80
2023/02/15 11:30:44;;;;;;;;;;;6.60;91.20;;;;;;5062108;28;19913;-80
2023/02/15 11:33:36;;;;;;;;;;;6.60;91.10;;;;;;5044207;28;20014;-80
2023/02/15 11:36:11;;;;;;;;;;;6.50;91.20;;;;;;5057457;28;19912;-79
2023/02/15 11:38:43;;;;;;;;;;;6.60;91.50;;;;;;5049335;28;19913;-79
2023/02/15 11:41:14;;;;;;;;;;;6.70;91.60;;;;;;5042736;28;19909;-79
2023/02/15 11:43:49;;;;;;;;;;;6.80;91.00;;;;;;5066003;28;19920;-80
2023/02/15 11:49:25;;;;;;;;;;;6.90;91.20;;;;;;5003216;22;20306;-79
2023/02/15 11:55:24;;;;;;;;;;;7.30;90.60;;;;;;5021383;28;19968;-79
2023/02/15 12:01:11;;;;;;;;;;;7.60;89.10;;;;;;5083321;28;19925;-77
2023/02/15 12:03:56;;;;;;;;;;;7.40;89.40;;;;;;5091471;28;19908;-80
2023/02/15 12:06:38;;;;;;;;;;;7.20;90.30;;;;;;5087180;28;19921;-79
2023/02/15 12:09:10;;;;;;;;;;;7.20;90.70;;;;;;5043714;28;19913;-78
2023/02/15 12:11:37;;;;;;;;;;;7.30;90.80;;;;;;5049639;28;19912;-79
2023/02/15 12:14:07;;;;;;;;;;;7.40;90.30;;;;;;5052347;28;19916;-80
2023/02/15 12:16:44;;;;;;;;;;;7.50;90.00;;;;;;5062135;28;19912;-81
2023/02/15 12:19:18;;;;;;;;;;;7.50;90.10;;;;;;5063443;28;19913;-79
2023/02/15 12:21:44;;;;;;;;;;;7.50;89.30;;;;;;5044629;28;20366;-79
2023/02/15 12:24:18;;;;;;;;;;;7.50;89.40;;;;;;5063064;28;19997;-78
2023/02/15 12:26:44;;;;;;;;;;;7.50;90.00;;;;;;5061961;28;19909;-77
2023/02/15 12:29:16;;;;;;;;;;;7.40;90.60;;;;;;5067964;28;19986;-79
2023/02/15 12:31:44;;;;;;;;;;;7.40;91.00;;;;;;5087387;28;20102;-79
2023/02/15 12:34:12;;;;;;;;;;;7.60;90.60;;;;;;5074565;28;19918;-79
2023/02/15 12:36:45;;;;;;;;;;;7.80;90.70;;;;;;5077353;28;19936;-78
2023/02/15 12:39:40;;;;;;;;;;;8.00;90.20;;;;;;5051759;28;19919;-79
2023/02/15 12:42:15;;;;;;;;;;;8.40;88.80;;;;;;5034604;28;19959;-79
2023/02/15 12:44:52;;;;;;;;;;;8.50;86.90;;;;;;5040856;28;19935;-78
2023/02/15 12:47:19;;;;;;;;;;;8.40;87.30;;;;;;5057738;28;19925;-79
2023/02/15 12:50:03;;;;;;;;;;;8.30;87.80;;;;;;5042011;28;19913;-81
2023/02/15 12:52:28;;;;;;;;;;;8.30;88.60;;;;;;5077903;28;20289;-78
2023/02/15 12:54:54;;;;;;;;;;;8.30;89.00;;;;;;5059349;28;19924;-78
2023/02/15 12:57:29;;;;;;;;;;;8.30;88.50;;;;;;5078758;28;19908;-79
2023/02/15 12:59:56;;;;;;;;;;;8.40;87.60;;;;;;5078854;28;19975;-80
2023/02/15 13:02:43;;;;;;;;;;;8.50;88.30;;;;;;5060076;28;20425;-78
2023/02/15 13:05:27;;;;;;;;;;;8.50;87.80;;;;;;5052272;28;20003;-78
2023/02/15 13:07:54;;;;;;;;;;;8.60;87.30;;;;;;5060908;28;19909;-79
2023/02/15 13:10:24;;;;;;;;;;;8.80;87.60;;;;;;5061449;28;19952;-78
2023/02/15 13:12:53;;;;;;;;;;;8.80;86.40;;;;;;5060553;28;19916;-79
2023/02/15 13:15:28;;;;;;;;;;;8.90;87.10;;;;;;5066421;28;19961;-78
2023/02/15 13:17:55;;;;;;;;;;;8.90;87.00;;;;;;5063551;28;19963;-79
2023/02/15 13:20:26;;;;;;;;;;;8.90;87.20;;;;;;5057682;28;19916;-78
2023/02/15 13:22:53;;;;;;;;;;;9.00;87.40;;;;;;5071601;28;19913;-79
2023/02/15 13:25:20;;;;;;;;;;;8.90;87.60;;;;;;5094227;28;19912;-80
2023/02/15 13:27:48;;;;;;;;;;;8.90;88.20;;;;;;5094711;28;19983;-80
2023/02/15 13:30:18;;;;;;;;;;;8.90;87.60;;;;;;5066211;28;19908;-79
2023/02/15 13:32:45;;;;;;;;;;;8.90;88.00;;;;;;5079420;28;19912;-79
2023/02/15 13:35:14;;;;;;;;;;;8.90;88.40;;;;;;5079488;28;19913;-79
2023/02/15 13:37:46;;;;;;;;;;;8.90;88.80;;;;;;5062390;28;19909;-79
2023/02/15 13:40:15;;;;;;;;;;;8.90;88.90;;;;;;5064803;28;19924;-80
2023/02/15 13:42:44;;;;;;;;;;;8.90;88.30;;;;;;5075562;28;19912;-79
2023/02/15 13:45:24;;;;;;;;;;;8.90;89.50;;;;;;5059925;28;19909;-80
2023/02/15 13:48:09;;;;;;;;;;;8.90;89.40;;;;;;5058613;28;20007;-78
2023/02/15 13:50:38;;;;;;;;;;;9.00;89.90;;;;;;5062555;28;19916;-80
2023/02/15 13:53:06;;;;;;;;;;;9.10;89.80;;;;;;5074706;28;19915;-79
2023/02/15 13:55:34;;;;;;;;;;;9.40;87.70;;;;;;5083516;28;19912;-78
2023/02/15 13:58:00;;;;;;;;;;;9.50;87.00;;;;;;5088008;28;19912;-80
2023/02/15 14:00:31;;;;;;;;;;;9.50;86.10;;;;;;5083310;28;19915;-80
2023/02/15 14:03:06;;;;;;;;;;;9.50;86.90;;;;;;5074943;28;19977;-79
2023/02/15 14:05:48;;;;;;;;;;;9.60;86.00;;;;;;5061673;28;20377;-79
2023/02/15 14:08:23;;;;;;;;;;;9.70;86.10;;;;;;5055567;28;19909;-80
2023/02/15 14:10:49;;;;;;;;;;;9.80;84.90;;;;;;5070032;28;20043;-78
2023/02/15 14:13:32;;;;;;;;;;;9.70;84.00;;;;;;5062948;28;19936;-78
2023/02/15 14:15:57;;;;;;;;;;;9.60;85.10;;;;;;5047820;28;19976;-79
2023/02/15 14:18:49;;;;;;;;;;;9.30;85.30;;;;;;5082899;28;19908;-79
2023/02/15 14:21:40;;;;;;;;;;;9.10;86.40;;;;;;5054190;28;19915;-78
2023/02/15 14:24:08;;;;;;;;;;;9.00;87.00;;;;;;5050509;28;19923;-79
2023/02/15 14:26:48;;;;;;;;;;;8.80;88.40;;;;;;5045531;28;19977;-79
2023/02/15 14:29:13;;;;;;;;;;;8.70;88.40;;;;;;5061249;28;19908;-79
2023/02/15 14:31:57;;;;;;;;;;;8.60;88.10;;;;;;5068085;28;19943;-79
2023/02/15 14:34:24;;;;;;;;;;;8.50;88.60;;;;;;5086813;28;19999;-77
2023/02/15 14:36:53;;;;;;;;;;;8.40;89.20;;;;;;5085891;28;19912;-76
2023/02/15 14:42:29;;;;;;;;;;;8.40;90.00;;;;;;5067333;28;19920;-79
2023/02/15 14:45:01;;;;;;;;;;;8.40;90.20;;;;;;5064244;28;19919;-79
2023/02/15 14:47:30;;;;;;;;;;;8.40;89.80;;;;;;5071114;28;19952;-78
2023/02/15 14:49:55;;;;;;;;;;;8.40;90.30;;;;;;5062833;28;19920;-79
2023/02/15 14:52:21;;;;;;;;;;;8.30;90.60;;;;;;5048414;28;20337;-80
2023/02/15 14:54:46;;;;;;;;;;;8.20;91.00;;;;;;5078685;28;20359;-77
2023/02/15 14:57:12;;;;;;;;;;;8.10;90.80;;;;;;5079925;28;19913;-79
2023/02/15 14:59:40;;;;;;;;;;;8.00;91.00;;;;;;5079388;28;20101;-78
2023/02/15 15:02:05;;;;;;;;;;;7.90;91.20;;;;;;5075648;28;19962;-77
2023/02/15 15:04:33;;;;;;;;;;;7.80;91.60;;;;;;5059797;28;19909;-79
2023/02/15 15:07:20;;;;;;;;;;;7.70;91.80;;;;;;5041796;28;20107;-77
2023/02/15 15:09:48;;;;;;;;;;;7.60;92.00;;;;;;5058886;28;19909;-80
2023/02/15 15:12:16;;;;;;;;;;;7.40;92.30;;;;;;5059348;28;19920;-79
2023/02/15 15:14:43;;;;;;;;;;;7.40;92.50;;;;;;5060568;28;20275;-79